createdAt,value
2022-12-26T00:01:30.957Z,66.22
2022-12-26T00:03:59.370Z,67.05
2022-12-26T00:06:30.991Z,66.28
2022-12-26T00:09:00.259Z,66.72
2022-12-26T00:11:29.136Z,66.94
2022-12-26T00:13:58.052Z,66.31
2022-12-26T00:16:26.953Z,66.61
2022-12-26T00:18:55.880Z,67.18
2022-12-26T00:21:27.365Z,67.17
2022-12-26T00:23:58.567Z,67.43
2022-12-26T00:26:28.432Z,68.50
2022-12-26T00:28:57.373Z,68.52
2022-12-26T00:31:27.533Z,68.42
2022-12-26T00:33:56.024Z,68.41
2022-12-26T00:36:27.571Z,68.26
2022-12-26T00:38:58.228Z,68.54
2022-12-26T00:41:26.877Z,68.76
2022-12-26T00:43:56.254Z,69.21
2022-12-26T00:46:24.714Z,68.13
2022-12-26T00:48:53.079Z,68.58
2022-12-26T00:51:21.637Z,68.78
2022-12-26T00:53:50.064Z,68.65
2022-12-26T00:56:19.793Z,69.07
2022-12-26T00:58:49.789Z,68.41
2022-12-26T01:01:21.233Z,68.40
2022-12-26T01:03:51.433Z,68.38
2022-12-26T01:06:19.794Z,68.26
2022-12-26T01:08:48.099Z,67.92
2022-12-26T01:11:38.165Z,67.75
2022-12-26T01:14:10.494Z,68.49
2022-12-26T01:16:39.047Z,68.31
2022-12-26T01:19:07.444Z,67.79
2022-12-26T01:21:35.690Z,68.81
2022-12-26T01:24:03.972Z,68.43
2022-12-26T01:26:32.342Z,68.44
2022-12-26T01:29:00.544Z,69.38
2022-12-26T01:31:30.284Z,68.71
2022-12-26T01:33:58.555Z,69.29
2022-12-26T01:36:26.782Z,69.22
2022-12-26T01:38:55.347Z,68.98
2022-12-26T01:41:23.472Z,68.94
2022-12-26T01:43:54.351Z,68.47
2022-12-26T01:46:27.296Z,68.60
2022-12-26T01:49:00.022Z,68.72
2022-12-26T01:51:32.992Z,67.77
2022-12-26T01:54:39.305Z,68.37
2022-12-26T01:56:51.583Z,67.87
2022-12-26T01:59:24.136Z,68.39
2022-12-26T02:01:55.452Z,68.24
2022-12-26T02:04:47.663Z,67.38
2022-12-26T02:07:15.817Z,67.19
2022-12-26T02:09:44.302Z,68.13
2022-12-26T02:12:35.673Z,67.02
2022-12-26T02:15:10.163Z,67.05
2022-12-26T02:17:39.413Z,67.70
2022-12-26T02:20:19.729Z,66.95
2022-12-26T02:23:35.288Z,67.29
2022-12-26T02:26:41.719Z,67.78
2022-12-26T02:29:54.746Z,67.77
2022-12-26T02:32:37.000Z,68.21
2022-12-26T02:35:13.996Z,67.72
2022-12-26T02:37:54.882Z,68.56
2022-12-26T02:40:43.176Z,67.54
2022-12-26T02:43:18.296Z,68.22
2022-12-26T02:46:11.743Z,67.94
2022-12-26T02:48:48.699Z,68.75
2022-12-26T02:51:58.481Z,68.04
2022-12-26T02:54:49.944Z,67.95
2022-12-26T02:57:40.359Z,68.26
2022-12-26T03:00:31.706Z,68.12
2022-12-26T03:03:22.795Z,68.76
2022-12-26T03:06:15.409Z,67.70
2022-12-26T03:09:07.475Z,67.90
2022-12-26T03:11:58.131Z,67.38
2022-12-26T03:14:29.756Z,68.11
2022-12-26T03:17:20.121Z,69.10
2022-12-26T03:20:02.643Z,68.05
2022-12-26T03:22:40.945Z,69.20
2022-12-26T03:25:29.818Z,67.60
2022-12-26T03:27:58.346Z,68.26
2022-12-26T03:30:44.361Z,68.07
2022-12-26T03:33:26.470Z,67.62
2022-12-26T03:35:55.092Z,68.28
2022-12-26T03:38:31.588Z,68.58
2022-12-26T03:41:25.419Z,68.47
2022-12-26T03:44:25.006Z,68.78
2022-12-26T03:47:25.030Z,69.03
2022-12-26T03:50:18.504Z,68.78
2022-12-26T03:53:14.938Z,69.17
2022-12-26T03:56:11.277Z,68.73
2022-12-26T03:59:04.168Z,69.08
2022-12-26T04:01:53.749Z,69.17
2022-12-26T04:04:55.977Z,69.11
2022-12-26T04:07:56.081Z,68.85
2022-12-26T04:10:49.782Z,68.42
2022-12-26T04:13:41.927Z,68.21
2022-12-26T04:16:35.559Z,67.87
2022-12-26T04:19:26.820Z,67.22
2022-12-26T04:22:21.940Z,67.14
2022-12-26T04:25:12.713Z,67.23
2022-12-26T04:27:58.228Z,67.81
2022-12-26T04:30:45.574Z,66.97
2022-12-26T04:33:39.038Z,67.29
2022-12-26T04:36:29.921Z,67.73
2022-12-26T04:39:19.713Z,68.00
2022-12-26T04:42:06.842Z,68.63
2022-12-26T04:44:37.326Z,68.83
2022-12-26T04:47:07.024Z,68.83
2022-12-26T04:50:01.125Z,68.69
2022-12-26T04:52:50.674Z,68.08
2022-12-26T04:55:19.242Z,68.83
2022-12-26T04:57:47.608Z,68.79
2022-12-26T05:00:16.630Z,67.90
2022-12-26T05:03:03.891Z,67.98
2022-12-26T05:05:54.847Z,67.72
2022-12-26T05:08:45.255Z,66.79
2022-12-26T05:11:13.393Z,67.29
2022-12-26T05:13:41.689Z,67.76
2022-12-26T05:16:32.788Z,66.88
2022-12-26T05:19:19.913Z,67.23
2022-12-26T05:22:05.620Z,67.12
2022-12-26T05:24:53.981Z,66.87
2022-12-26T05:27:51.393Z,66.79
2022-12-26T05:30:19.807Z,67.05
2022-12-26T05:33:05.101Z,66.19
2022-12-26T05:35:36.157Z,66.61
2022-12-26T05:38:04.979Z,65.54
2022-12-26T05:40:33.595Z,66.28
2022-12-26T05:43:01.820Z,66.70
2022-12-26T05:45:29.926Z,66.73
2022-12-26T05:48:00.524Z,67.14
2022-12-26T05:50:29.205Z,66.47
2022-12-26T05:52:59.631Z,67.29
2022-12-26T05:55:28.149Z,66.56
2022-12-26T05:57:56.313Z,66.64
2022-12-26T06:00:24.643Z,66.22
2022-12-26T06:02:52.933Z,66.41
2022-12-26T06:05:21.257Z,65.99
2022-12-26T06:07:49.792Z,65.75
2022-12-26T06:10:19.685Z,65.78
2022-12-26T06:12:47.864Z,65.64
2022-12-26T06:15:15.973Z,65.95
2022-12-26T06:17:44.273Z,66.22
2022-12-26T06:20:13.171Z,66.48
2022-12-26T06:22:41.408Z,65.46
2022-12-26T06:25:10.619Z,65.82
2022-12-26T06:27:40.266Z,65.66
2022-12-26T06:30:09.236Z,66.77
2022-12-26T06:32:37.380Z,65.75
2022-12-26T06:35:05.990Z,65.67
2022-12-26T06:37:34.885Z,65.42
2022-12-26T06:40:03.114Z,66.65
2022-12-26T06:42:31.310Z,66.11
2022-12-26T06:45:00.934Z,66.90
2022-12-26T06:47:30.461Z,66.49
2022-12-26T06:49:59.760Z,66.19
2022-12-26T06:52:28.403Z,66.45
2022-12-26T06:54:58.928Z,66.36
2022-12-26T06:57:27.210Z,66.14
2022-12-26T06:59:55.489Z,66.11
2022-12-26T07:02:25.333Z,65.92
2022-12-26T07:04:53.766Z,66.60
2022-12-26T07:07:22.043Z,67.16
2022-12-26T07:09:50.372Z,66.15
2022-12-26T07:12:21.040Z,66.70
2022-12-26T07:14:49.628Z,65.93
2022-12-26T07:17:17.742Z,65.99
2022-12-26T07:19:47.229Z,65.80
2022-12-26T07:22:15.447Z,66.07
2022-12-26T07:24:43.685Z,64.71
2022-12-26T07:27:11.902Z,65.33
2022-12-26T07:29:40.055Z,65.22
2022-12-26T07:32:08.403Z,65.33
2022-12-26T07:34:36.839Z,65.98
2022-12-26T07:37:06.450Z,66.02
2022-12-26T07:39:35.821Z,65.70
2022-12-26T07:42:03.909Z,66.06
2022-12-26T07:44:33.839Z,66.37
2022-12-26T07:47:02.968Z,66.12
2022-12-26T07:49:31.177Z,65.43
2022-12-26T07:51:59.301Z,65.30
2022-12-26T07:54:30.279Z,64.53
2022-12-26T07:57:21.908Z,65.10
2022-12-26T07:59:46.716Z,64.83
2022-12-26T08:02:15.151Z,64.52
2022-12-26T08:04:43.503Z,65.01
2022-12-26T08:07:11.825Z,64.79
2022-12-26T08:09:43.170Z,64.54
2022-12-26T08:12:11.722Z,64.79
2022-12-26T08:14:40.179Z,65.02
2022-12-26T08:17:09.257Z,65.09
2022-12-26T08:19:37.635Z,64.56
2022-12-26T08:22:05.768Z,64.67
2022-12-26T08:24:33.903Z,64.62
2022-12-26T08:27:03.428Z,64.24
2022-12-26T08:29:32.031Z,64.69
2022-12-26T08:32:00.079Z,64.05
2022-12-26T08:34:33.754Z,63.63
2022-12-26T08:37:01.797Z,63.88
2022-12-26T08:39:30.029Z,63.03
2022-12-26T08:41:58.072Z,62.84
2022-12-26T08:44:28.438Z,63.00
2022-12-26T08:46:57.018Z,62.89
2022-12-26T08:49:25.289Z,63.66
2022-12-26T08:51:53.435Z,63.59
2022-12-26T08:54:21.617Z,63.29
2022-12-26T08:56:49.727Z,63.90
2022-12-26T08:59:17.820Z,64.41
2022-12-26T09:01:47.348Z,63.99
2022-12-26T09:04:15.667Z,65.16
2022-12-26T09:06:43.762Z,64.43
2022-12-26T09:09:13.353Z,64.74
2022-12-26T09:11:42.727Z,65.03
2022-12-26T09:14:12.040Z,64.70
2022-12-26T09:16:49.604Z,65.38
2022-12-26T09:19:21.897Z,64.97
2022-12-26T09:22:12.179Z,64.66
2022-12-26T09:24:40.292Z,64.04
2022-12-26T09:27:08.591Z,63.39
2022-12-26T09:29:38.354Z,64.25
2022-12-26T09:32:07.010Z,64.06
2022-12-26T09:34:36.554Z,63.25
2022-12-26T09:37:04.824Z,63.74
2022-12-26T09:39:32.975Z,63.19
2022-12-26T09:42:08.724Z,63.30
2022-12-26T09:44:47.167Z,63.90
2022-12-26T09:47:32.287Z,64.54
2022-12-26T09:50:05.930Z,64.34
2022-12-26T09:52:42.160Z,64.00
2022-12-26T09:55:27.586Z,63.38
2022-12-26T09:58:00.584Z,63.33
2022-12-26T10:00:34.627Z,62.94
2022-12-26T10:03:03.322Z,63.47
2022-12-26T10:05:40.405Z,63.33
2022-12-26T10:08:23.599Z,62.98
2022-12-26T10:10:59.641Z,62.66
2022-12-26T10:13:35.714Z,62.61
2022-12-26T10:16:10.142Z,62.65
2022-12-26T10:18:50.265Z,63.04
2022-12-26T10:21:32.358Z,63.54
2022-12-26T10:24:04.069Z,63.05
2022-12-26T10:26:35.963Z,62.64
2022-12-26T10:29:13.596Z,62.16
2022-12-26T10:31:46.241Z,63.16
2022-12-26T10:34:19.667Z,62.54
2022-12-26T10:36:51.204Z,62.63
2022-12-26T10:39:26.552Z,62.62
2022-12-26T10:41:58.568Z,62.83
2022-12-26T10:44:27.977Z,63.00
2022-12-26T10:47:20.933Z,62.66
2022-12-26T10:49:50.000Z,63.11
2022-12-26T10:52:27.472Z,63.18
2022-12-26T10:55:29.541Z,62.73
2022-12-26T10:57:53.558Z,62.98
2022-12-26T11:00:24.618Z,63.14
2022-12-26T11:03:05.090Z,62.76
2022-12-26T11:08:28.109Z,63.63
2022-12-26T11:11:04.609Z,63.41
2022-12-26T11:13:37.125Z,63.33
2022-12-26T11:16:06.260Z,63.35
2022-12-26T11:18:38.078Z,63.16
2022-12-26T11:24:29.638Z,63.84
2022-12-26T11:27:18.918Z,63.96
2022-12-26T11:29:47.460Z,64.11
2022-12-26T11:32:21.382Z,63.61
2022-12-26T11:34:51.483Z,64.24
2022-12-26T11:37:27.741Z,64.28
2022-12-26T11:39:58.890Z,63.37
2022-12-26T11:42:28.414Z,63.60
2022-12-26T11:44:58.981Z,64.42
2022-12-26T11:47:30.739Z,64.26
2022-12-26T11:50:03.275Z,64.27
2022-12-26T11:52:38.181Z,64.61
2022-12-26T11:55:33.834Z,63.68
2022-12-26T11:58:19.219Z,63.63
2022-12-26T12:01:12.241Z,63.70
2022-12-26T12:03:48.843Z,63.21
2022-12-26T12:06:37.662Z,63.34
2022-12-26T12:09:15.511Z,63.04
2022-12-26T12:11:50.208Z,62.94
2022-12-26T12:14:33.903Z,62.68
2022-12-26T12:17:12.665Z,62.60
2022-12-26T12:20:04.669Z,62.40
2022-12-26T12:22:49.934Z,62.39
2022-12-26T12:25:37.424Z,62.24
2022-12-26T12:28:19.720Z,62.23
2022-12-26T12:30:57.117Z,61.98
2022-12-26T12:33:38.345Z,61.87
2022-12-26T12:36:11.813Z,61.91
2022-12-26T12:38:56.533Z,62.05
2022-12-26T12:41:40.865Z,61.85
2022-12-26T12:44:19.661Z,61.88
2022-12-26T12:46:55.677Z,62.34
2022-12-26T12:49:38.646Z,62.17
2022-12-26T12:52:19.785Z,62.23
2022-12-26T12:55:30.354Z,62.25
2022-12-26T12:58:40.711Z,62.53
2022-12-26T13:04:25.022Z,62.31
2022-12-26T13:22:26.114Z,61.76
2022-12-26T13:24:58.889Z,61.87
2022-12-26T13:35:09.591Z,62.43
2022-12-26T13:38:00.257Z,62.13
2022-12-26T13:40:31.305Z,62.79
2022-12-26T13:46:57.185Z,63.01
2022-12-26T13:49:31.747Z,62.95
2022-12-26T13:52:32.368Z,62.65
2022-12-26T13:55:52.016Z,62.55
2022-12-26T13:58:35.993Z,62.50
2022-12-26T14:01:13.175Z,62.22
2022-12-26T14:03:55.295Z,61.83
2022-12-26T14:06:44.413Z,61.89
2022-12-26T14:09:37.800Z,61.69
2022-12-26T14:12:30.115Z,61.39
2022-12-26T14:15:09.952Z,61.45
2022-12-26T14:17:49.354Z,61.51
2022-12-26T14:20:37.269Z,61.50
2022-12-26T14:23:22.232Z,61.65
2022-12-26T14:25:57.046Z,61.35
2022-12-26T14:28:30.559Z,62.01
2022-12-26T14:31:13.023Z,61.73
2022-12-26T14:33:51.207Z,61.19
2022-12-26T14:36:34.490Z,61.53
2022-12-26T14:39:18.248Z,61.29
2022-12-26T14:42:34.714Z,61.35
2022-12-26T14:45:05.416Z,61.69
2022-12-26T14:47:41.814Z,61.67
2022-12-26T14:50:39.285Z,61.63
2022-12-26T14:53:31.809Z,61.70
2022-12-26T14:56:01.491Z,61.63
2022-12-26T14:58:47.455Z,61.48
2022-12-26T15:01:51.290Z,61.39
2022-12-26T15:04:43.680Z,61.85
2022-12-26T15:07:33.597Z,61.58
2022-12-26T15:10:46.495Z,62.06
2022-12-26T15:13:55.956Z,62.03
2022-12-26T15:16:42.447Z,62.31
2022-12-26T15:19:45.561Z,62.24
2022-12-26T15:22:54.618Z,62.62
2022-12-26T15:25:44.778Z,62.44
2022-12-26T15:28:39.742Z,62.79
2022-12-26T15:31:27.931Z,62.78
2022-12-26T15:34:04.183Z,62.98
2022-12-26T15:36:44.801Z,63.00
2022-12-26T15:39:25.101Z,63.21
2022-12-26T15:42:02.228Z,63.35
2022-12-26T15:44:39.663Z,63.61
2022-12-26T15:51:03.125Z,63.91
2022-12-26T15:53:47.159Z,63.62
2022-12-26T15:56:41.149Z,64.10
2022-12-26T15:59:33.436Z,63.82
2022-12-26T16:02:41.715Z,64.22
2022-12-26T16:05:42.118Z,64.58
2022-12-26T16:08:33.788Z,64.67
2022-12-26T16:11:18.900Z,64.95
2022-12-26T16:13:56.512Z,65.56
2022-12-26T16:16:30.018Z,65.43
2022-12-26T16:18:58.660Z,65.86
2022-12-26T16:21:47.541Z,65.77
2022-12-26T16:24:20.765Z,65.53
2022-12-26T16:26:50.642Z,65.34
2022-12-26T16:29:21.825Z,65.35
2022-12-26T16:31:50.357Z,65.07
2022-12-26T16:34:20.897Z,65.23
2022-12-26T16:36:51.406Z,65.19
2022-12-26T16:39:24.579Z,65.35
2022-12-26T16:42:07.506Z,65.32
2022-12-26T16:44:40.711Z,64.95
2022-12-26T16:47:12.776Z,64.81
2022-12-26T16:49:41.824Z,64.56
2022-12-26T16:52:32.692Z,64.58
2022-12-26T16:55:34.398Z,64.66
2022-12-26T16:58:14.775Z,64.55
2022-12-26T17:00:50.030Z,64.54
2022-12-26T17:03:28.997Z,64.20
2022-12-26T17:05:57.484Z,64.53
2022-12-26T17:08:26.180Z,64.71
2022-12-26T17:10:54.800Z,64.96
2022-12-26T17:13:27.870Z,64.54
2022-12-26T17:15:58.310Z,64.78
2022-12-26T17:18:49.056Z,64.92
2022-12-26T17:21:24.033Z,64.68
2022-12-26T17:24:29.587Z,64.28
2022-12-26T17:27:17.514Z,65.03
2022-12-26T17:29:56.110Z,65.44
2022-12-26T17:32:36.821Z,65.66
2022-12-26T17:56:33.109Z,65.60
2022-12-26T17:59:01.464Z,65.81
2022-12-26T18:12:40.075Z,65.54
2022-12-26T18:15:08.966Z,65.85
2022-12-26T18:17:37.352Z,66.14
2022-12-26T18:20:07.141Z,66.30
2022-12-26T18:22:36.627Z,66.69
2022-12-26T18:25:05.165Z,66.82
2022-12-26T18:27:35.158Z,67.43
2022-12-26T18:30:05.418Z,67.76
2022-12-26T18:32:35.273Z,68.49
2022-12-26T18:35:03.461Z,68.41
2022-12-26T18:37:31.995Z,68.87
2022-12-26T18:40:00.111Z,69.12
2022-12-26T18:42:28.258Z,68.54
2022-12-26T18:44:56.616Z,68.43
2022-12-26T18:47:26.303Z,69.21
2022-12-26T18:49:56.365Z,68.35
2022-12-26T18:52:24.522Z,68.47
2022-12-26T18:54:52.805Z,68.86
2022-12-26T18:57:22.188Z,69.25
2022-12-26T18:59:50.451Z,68.81
2022-12-26T19:02:20.454Z,69.64
2022-12-26T19:04:51.152Z,69.00
2022-12-26T19:07:21.494Z,69.35
2022-12-26T19:09:55.155Z,69.41
2022-12-26T19:12:27.427Z,70.13
2022-12-26T19:14:55.737Z,69.99
2022-12-26T19:17:24.087Z,69.67
2022-12-26T19:19:53.781Z,69.92
2022-12-26T19:22:21.985Z,70.15
2022-12-26T19:24:50.096Z,69.84
2022-12-26T19:27:18.419Z,69.56
2022-12-26T19:29:46.702Z,70.01
2022-12-26T19:32:14.977Z,69.49
2022-12-26T19:34:43.256Z,69.13
2022-12-26T19:37:12.889Z,69.33
2022-12-26T19:39:41.050Z,68.98
2022-12-26T19:42:09.269Z,68.94
2022-12-26T19:44:37.470Z,68.74
2022-12-26T19:47:11.541Z,68.76
2022-12-26T19:49:41.183Z,69.02
2022-12-26T19:52:11.051Z,69.04
2022-12-26T19:54:40.812Z,68.79
2022-12-26T19:57:09.376Z,69.51
2022-12-26T19:59:38.909Z,69.03
2022-12-26T20:02:07.270Z,68.76
2022-12-26T20:04:35.574Z,68.65
2022-12-26T20:07:03.806Z,68.77
2022-12-26T20:09:31.964Z,68.20
2022-12-26T20:12:02.146Z,68.55
2022-12-26T20:14:32.431Z,68.17
2022-12-26T20:17:07.253Z,68.16
2022-12-26T20:19:36.741Z,67.37
2022-12-26T20:22:05.378Z,68.03
2022-12-26T20:24:33.937Z,67.07
2022-12-26T20:27:04.238Z,66.84
2022-12-26T20:29:49.797Z,66.74
2022-12-26T20:32:18.011Z,66.33
2022-12-26T20:35:41.713Z,66.84
2022-12-26T20:38:09.973Z,66.57
2022-12-26T20:40:38.237Z,66.02
2022-12-26T20:43:07.865Z,66.16
2022-12-26T20:45:38.791Z,65.74
2022-12-26T20:48:07.484Z,65.22
2022-12-26T20:50:35.655Z,66.18
2022-12-26T20:53:03.882Z,65.69
2022-12-26T20:55:32.152Z,65.52
2022-12-26T20:58:00.328Z,64.93
2022-12-26T21:00:30.240Z,64.39
2022-12-26T21:02:58.564Z,64.64
2022-12-26T21:05:26.796Z,64.79
2022-12-26T21:07:55.020Z,64.48
2022-12-26T21:10:23.165Z,64.62
2022-12-26T21:12:51.410Z,64.76
2022-12-26T21:15:19.851Z,63.79
2022-12-26T21:17:49.417Z,63.99
2022-12-26T21:20:17.984Z,64.44
2022-12-26T21:22:46.071Z,64.39
2022-12-26T21:51:47.678Z,64.51
2022-12-26T21:54:33.401Z,64.38
2022-12-26T21:57:03.078Z,64.77
2022-12-26T21:59:45.174Z,64.90
2022-12-26T22:02:36.350Z,64.70
2022-12-26T22:05:03.812Z,64.77
2022-12-26T22:07:32.107Z,64.31
2022-12-26T22:10:00.737Z,64.44
2022-12-26T22:12:46.809Z,64.05
2022-12-26T22:15:32.103Z,64.28
2022-12-26T22:18:00.470Z,64.96
2022-12-26T22:20:28.753Z,64.62
2022-12-26T22:22:57.462Z,65.19
2022-12-26T22:25:25.890Z,64.60
2022-12-26T22:27:55.605Z,64.98
2022-12-26T22:30:23.931Z,64.97
2022-12-26T22:32:52.124Z,64.38
2022-12-26T22:35:20.755Z,64.47
2022-12-26T22:37:49.244Z,63.76
2022-12-26T22:40:17.529Z,64.10
2022-12-26T22:42:45.802Z,64.28
2022-12-26T22:45:15.564Z,64.41
2022-12-26T22:47:43.839Z,64.20
2022-12-26T22:50:16.371Z,63.71
2022-12-26T22:52:45.684Z,63.61
2022-12-26T22:55:14.636Z,63.70
2022-12-26T22:57:48.102Z,63.55
2022-12-26T23:00:24.059Z,63.54
2022-12-26T23:02:52.515Z,64.02
2022-12-26T23:05:21.466Z,64.07
2022-12-26T23:25:53.353Z,63.79
2022-12-26T23:32:17.004Z,63.95
2022-12-26T23:38:32.265Z,64.07
2022-12-26T23:41:00.600Z,64.09
2022-12-26T23:43:28.965Z,64.15
2022-12-26T23:45:57.424Z,63.80
2022-12-26T23:48:25.683Z,63.39
2022-12-26T23:51:02.869Z,64.08
2022-12-26T23:53:32.980Z,63.92
2022-12-26T23:56:01.447Z,64.80
2022-12-26T23:58:29.848Z,65.14
